Time;durP1;ratioP1;P1;durP2;ratioP2;P2;SDS_P1;SDS_P2;PMS_P1;PMS_P2;Temp;Humidity;BMP_temperature;BMP_pressure;BME280_temperature;BME280_humidity;BME280_pressure;Samples;Min_cycle;Max_cycle;Signal;HPM_P1;HPM_P2
2021/08/09 00:01:01;;;;;;;9.57;5.70;;;26.50;75.70;;;;;;5117658;28;20055;-47
2021/08/09 00:03:26;;;;;;;9.07;5.30;;;26.40;76.60;;;;;;5048703;28;20067;-44
2021/08/09 00:05:52;;;;;;;11.25;4.70;;;26.40;75.20;;;;;;5117398;28;20065;-44
2021/08/09 00:08:20;;;;;;;8.93;4.95;;;26.50;79.10;;;;;;5117468;28;20023;-46
2021/08/09 00:10:46;;;;;;;6.57;4.47;;;26.50;77.40;;;;;;5117456;28;20032;-46
2021/08/09 00:13:11;;;;;;;8.27;4.43;;;26.50;76.40;;;;;;5117108;28;20030;-48
2021/08/09 00:15:37;;;;;;;6.88;4.43;;;26.60;80.10;;;;;;5081395;28;20387;-48
2021/08/09 00:18:03;;;;;;;6.63;4.00;;;26.60;79.80;;;;;;5048550;28;20031;-48
2021/08/09 00:20:29;;;;;;;7.25;4.00;;;26.60;78.00;;;;;;5117091;28;20047;-45
2021/08/09 00:22:55;;;;;;;9.80;4.63;;;26.70;78.00;;;;;;5117190;28;20123;-47
2021/08/09 00:25:21;;;;;;;7.25;4.50;;;26.70;79.50;;;;;;5116990;28;20028;-45
2021/08/09 00:27:47;;;;;;;5.70;3.70;;;26.70;79.40;;;;;;5047991;28;20032;-50
2021/08/09 00:30:13;;;;;;;8.48;4.07;;;26.70;78.10;;;;;;5116741;28;20035;-44
2021/08/09 00:32:39;;;;;;;7.45;3.90;;;26.50;77.30;;;;;;5116886;28;20031;-48
2021/08/09 00:35:06;;;;;;;8.25;4.07;;;26.40;78.60;;;;;;5116763;28;20035;-45
2021/08/09 00:37:32;;;;;;;10.73;4.55;;;26.40;79.20;;;;;;5047910;28;20378;-48
2021/08/09 00:39:58;;;;;;;8.95;4.28;;;26.40;80.40;;;;;;5116582;28;20027;-46
2021/08/09 00:42:24;;;;;;;10.25;3.90;;;26.40;80.70;;;;;;5116456;28;20043;-49
2021/08/09 00:44:50;;;;;;;12.10;4.28;;;26.40;80.40;;;;;;5064391;28;20077;-47
2021/08/09 00:47:16;;;;;;;11.35;4.85;;;26.40;81.20;;;;;;5047307;28;20447;-46
2021/08/09 00:49:41;;;;;;;11.35;4.57;;;26.40;80.70;;;;;;5064225;28;20430;-48
2021/08/09 00:52:08;;;;;;;6.95;3.80;;;26.30;80.40;;;;;;5116527;28;20024;-49
2021/08/09 00:54:34;;;;;;;11.25;4.35;;;26.20;81.30;;;;;;5116469;28;20360;-46
2021/08/09 00:57:18;;;;;;;7.60;4.22;;;26.10;82.30;;;;;;5116457;28;20030;-44
2021/08/09 00:59:44;;;;;;;7.03;4.28;;;26.10;84.90;;;;;;5116300;28;20068;-46
2021/08/09 01:02:10;;;;;;;8.13;4.70;;;26.10;84.70;;;;;;5080390;28;20417;-42
2021/08/09 01:04:36;;;;;;;7.40;4.35;;;26.10;84.90;;;;;;5116282;28;20045;-48
2021/08/09 01:07:03;;;;;;;10.23;4.88;;;26.10;84.90;;;;;;5047569;28;20081;-46
2021/08/09 01:09:33;;;;;;;9.77;4.40;;;26.10;84.80;;;;;;5116020;28;20057;-45
2021/08/09 01:12:21;;;;;;;8.77;4.90;;;26.10;83.30;;;;;;5112940;28;20024;-43
2021/08/09 01:15:20;;;;;;;9.93;5.82;;;26.10;83.30;;;;;;5116127;28;20085;-45
2021/08/09 01:17:47;;;;;;;10.05;5.95;;;26.10;83.20;;;;;;5116077;28;20027;-48
2021/08/09 01:20:47;;;;;;;9.95;5.97;;;26.10;85.40;;;;;;5115854;28;20031;-47
2021/08/09 01:23:30;;;;;;;11.60;5.40;;;26.10;85.50;;;;;;5033215;28;20052;-43
2021/08/09 01:25:59;;;;;;;10.95;6.32;;;26.10;85.30;;;;;;5033236;28;20061;-44
2021/08/09 01:28:29;;;;;;;8.52;5.10;;;26.00;85.20;;;;;;5033308;28;20025;-46
2021/08/09 01:30:56;;;;;;;8.50;4.70;;;26.00;85.20;;;;;;5033169;28;20057;-49
2021/08/09 01:33:24;;;;;;;8.00;4.70;;;26.00;85.40;;;;;;5013219;28;20486;-45
2021/08/09 01:35:53;;;;;;;13.05;5.97;;;26.00;85.10;;;;;;5013134;28;20050;-49
2021/08/09 01:38:22;;;;;;;8.70;5.28;;;25.90;87.00;;;;;;5010665;28;20049;-47
2021/08/09 01:40:48;;;;;;;10.50;5.00;;;25.80;92.10;;;;;;4997028;28;20057;-48
2021/08/09 01:43:16;;;;;;;10.05;4.68;;;25.90;93.10;;;;;;5012917;28;20050;-44
2021/08/09 01:45:43;;;;;;;8.27;5.25;;;25.90;92.90;;;;;;5013063;28;20379;-48
2021/08/09 01:48:09;;;;;;;10.43;5.03;;;25.90;92.20;;;;;;5013019;28;20042;-45
2021/08/09 01:50:36;;;;;;;9.75;5.20;;;;;;;;;;5012889;28;20122;-44
2021/08/09 01:53:04;;;;;;;7.30;4.55;;;;;;;;;;4979878;28;20038;-48
2021/08/09 01:55:32;;;;;;;7.07;4.55;;;;;;;;;;5012892;28;20034;-49
2021/08/09 01:57:58;;;;;;;8.68;5.25;;;;;;;;;;5023268;28;20063;-43
2021/08/09 02:00:24;;;;;;;9.55;4.80;;;;;;;;;;5039064;28;20032;-47
2021/08/09 02:02:52;;;;;;;7.13;4.63;;;;;;;;;;5039230;28;20032;-46
2021/08/09 02:05:19;;;;;;;8.93;5.13;;;;;;;;;;5110883;28;20039;-45
2021/08/09 02:07:46;;;;;;;8.02;5.30;;;;;;;;;;5115150;28;20024;-49
2021/08/09 02:10:13;;;;;;;10.57;5.00;;;;;;;;;;5115017;28;20027;-45
2021/08/09 02:12:45;;;;;;;11.95;5.45;;;;;;;;;;5114900;28;20093;-46
2021/08/09 02:15:12;;;;;;;10.50;6.38;;;;;;;;;;5114385;28;20100;-45
2021/08/09 02:17:43;;;;;;;9.50;5.38;;;;;;;;;;5115098;28;20027;-43
2021/08/09 02:20:37;;;;;;;11.00;5.88;;;25.20;96.60;;;;;;5079566;28;20104;-43
2021/08/09 02:23:06;;;;;;;9.10;5.53;;;;;;;;;;5114818;28;20471;-48
2021/08/09 02:25:34;;;;;;;11.40;5.55;;;;;;;;;;5114552;28;20027;-44
2021/08/09 02:28:05;;;;;;;10.27;5.55;;;;;;;;;;5114593;28;20030;-48
2021/08/09 02:30:31;;;;;;;;;;;;;;;;;;5115429;28;20051;-47
2021/08/09 02:32:59;;;;;;;9.82;6.38;;;;;;;;;;5114744;28;20363;-45
2021/08/09 02:35:26;;;;;;;12.32;6.03;;;;;;;;;;5114374;28;20031;-43
2021/08/09 02:37:52;;;;;;;8.65;5.35;;;;;;;;;;5114429;28;20059;-47
2021/08/09 02:40:20;;;;;;;9.02;5.72;;;;;;;;;;5114714;28;20032;-48
2021/08/09 02:42:49;;;;;;;14.27;6.43;;;;;;;;;;5114106;28;20079;-44
2021/08/09 02:45:16;;;;;;;11.52;6.13;;;;;;;;;;5114649;28;20102;-46
2021/08/09 02:47:43;;;;;;;13.38;6.03;;;;;;;;;;5114272;28;20043;-46
2021/08/09 02:50:10;;;;;;;9.05;6.10;;;;;;;;;;5113329;28;20028;-44
2021/08/09 02:52:38;;;;;;;9.50;6.20;;;;;;;;;;5111146;28;20471;-46
2021/08/09 02:55:04;;;;;;;16.52;6.10;;;;;;;;;;5114110;28;20035;-46
2021/08/09 02:57:31;;;;;;;8.98;5.82;;;24.70;75.70;;;;;;5062168;28;20419;-48
2021/08/09 02:59:57;;;;;;;13.50;6.10;;;24.70;76.40;;;;;;5114567;28;20120;-45
2021/08/09 03:02:25;;;;;;;9.15;5.78;;;24.80;76.40;;;;;;5114079;28;20023;-44
2021/08/09 03:04:52;;;;;;;9.27;5.88;;;24.70;76.40;;;;;;5103195;28;20173;-49
2021/08/09 03:07:19;;;;;;;10.77;6.30;;;;;;;;;;5093504;28;20501;-44
2021/08/09 03:09:46;;;;;;;9.15;5.80;;;;;;;;;;5093584;28;20056;-50
2021/08/09 03:12:16;;;;;;;10.63;6.13;;;;;;;;;;5091989;28;20065;-48
2021/08/09 03:14:42;;;;;;;7.97;5.93;;;;;;;;;;5093482;28;20176;-47
2021/08/09 03:17:09;;;;;;;12.55;6.25;;;;;;;;;;5093516;28;20372;-42
2021/08/09 03:19:35;;;;;;;7.63;5.22;;;;;;;;;;5057711;28;20042;-48
2021/08/09 03:22:01;;;;;;;12.43;6.07;;;24.00;99.90;;;;;;5058185;28;20040;-46
2021/08/09 03:24:29;;;;;;;9.43;6.05;;;24.20;95.80;;;;;;5041070;28;20067;-50
2021/08/09 03:26:55;;;;;;;9.93;5.95;;;;;;;;;;5095944;28;20059;-44
2021/08/09 03:29:21;;;;;;;10.23;6.10;;;;;;;;;;5062019;28;20035;-43
2021/08/09 03:31:47;;;;;;;9.43;6.25;;;23.70;99.90;;;;;;5062129;28;20463;-45
2021/08/09 03:34:14;;;;;;;11.73;6.65;;;;;;;;;;5061549;28;20036;-44
2021/08/09 03:36:45;;;;;;;10.35;6.38;;;;;;;;;;5097683;28;20027;-46
2021/08/09 03:39:11;;;;;;;15.82;6.90;;;;;;;;;;5063927;28;20040;-47
2021/08/09 03:41:37;;;;;;;13.57;6.53;;;;;;;;;;5061630;28;20032;-44
2021/08/09 03:44:04;;;;;;;11.38;6.80;;;23.40;99.90;;;;;;5097598;28;20074;-47
2021/08/09 03:46:30;;;;;;;9.80;6.57;;;23.70;99.90;;;;;;5061962;28;20028;-43
2021/08/09 03:48:56;;;;;;;8.93;6.15;;;;;;;;;;5061396;28;20036;-44
2021/08/09 03:51:22;;;;;;;10.27;6.63;;;23.40;88.80;;;;;;5097363;28;20391;-45
2021/08/09 03:53:48;;;;;;;9.15;6.10;;;23.30;90.40;;;;;;5097348;28;20035;-43
2021/08/09 03:56:14;;;;;;;9.88;5.72;;;23.40;91.00;;;;;;5044379;28;20044;-41
2021/08/09 03:58:39;;;;;;;15.55;7.40;;;23.40;91.40;;;;;;5097148;28;20042;-42
2021/08/09 04:01:07;;;;;;;7.70;5.88;;;23.40;91.60;;;;;;5102059;28;20015;-41
2021/08/09 04:03:33;;;;;;;9.82;5.90;;;23.40;91.80;;;;;;5056609;28;20054;-47
2021/08/09 04:05:59;;;;;;;7.35;5.40;;;23.40;92.30;;;;;;5117205;28;20050;-47
2021/08/09 04:08:25;;;;;;;9.60;5.63;;;23.40;92.60;;;;;;5117291;28;20063;-44
2021/08/09 04:10:50;;;;;;;8.43;6.00;;;23.40;92.90;;;;;;5116437;28;20027;-45
2021/08/09 04:13:18;;;;;;;7.97;6.03;;;23.40;93.40;;;;;;5117222;28;20027;-44
2021/08/09 04:15:44;;;;;;;7.72;5.57;;;23.50;93.60;;;;;;5064343;28;20487;-49
2021/08/09 04:18:09;;;;;;;7.22;5.25;;;23.50;94.00;;;;;;5116983;28;20024;-50
2021/08/09 04:20:37;;;;;;;9.75;5.13;;;23.50;94.20;;;;;;5112700;28;20115;-45
2021/08/09 04:23:03;;;;;;;8.85;5.63;;;23.50;94.50;;;;;;5096620;28;20036;-49
2021/08/09 04:25:29;;;;;;;13.65;5.60;;;23.50;94.80;;;;;;5096560;28;20031;-42
2021/08/09 04:27:55;;;;;;;8.85;5.03;;;23.50;94.90;;;;;;5096618;28;20020;-47
2021/08/09 04:30:20;;;;;;;7.95;5.13;;;23.60;95.00;;;;;;5098081;28;20021;-48
2021/08/09 04:32:46;;;;;;;8.65;5.65;;;23.50;95.30;;;;;;5116583;28;20038;-47
2021/08/09 04:35:14;;;;;;;11.63;5.10;;;23.60;95.30;;;;;;5116881;28;20036;-45
2021/08/09 04:37:41;;;;;;;7.88;5.20;;;23.50;95.60;;;;;;5116319;28;20031;-48
2021/08/09 04:40:07;;;;;;;9.90;5.75;;;23.60;95.60;;;;;;5080292;28;20032;-44
2021/08/09 04:42:33;;;;;;;6.55;4.57;;;23.70;95.50;;;;;;5060369;28;20052;-43
2021/08/09 04:44:59;;;;;;;13.43;5.47;;;23.80;95.40;;;;;;5060660;28;20040;-46
2021/08/09 04:47:26;;;;;;;6.75;4.38;;;23.80;95.40;;;;;;5096068;28;20038;-46
2021/08/09 04:49:52;;;;;;;10.13;4.57;;;23.80;95.30;;;;;;5044617;28;20097;-50
2021/08/09 04:52:18;;;;;;;8.65;4.38;;;23.80;95.30;;;;;;5114323;28;20028;-49
2021/08/09 04:54:45;;;;;;;6.43;4.28;;;23.80;95.30;;;;;;5115984;28;20023;-48
2021/08/09 04:57:10;;;;;;;5.53;4.03;;;23.80;95.30;;;;;;5111159;28;20015;-44
2021/08/09 04:59:36;;;;;;;5.32;4.13;;;23.90;95.40;;;;;;5062661;28;20479;-47
2021/08/09 05:02:02;;;;;;;4.55;3.67;;;23.90;95.20;;;;;;5068426;28;20035;-47
2021/08/09 05:04:28;;;;;;;6.43;3.92;;;23.90;95.20;;;;;;5012091;28;20063;-49
2021/08/09 05:06:54;;;;;;;9.68;4.30;;;24.00;95.10;;;;;;5063216;28;20056;-46
2021/08/09 05:09:19;;;;;;;7.05;4.03;;;24.00;95.10;;;;;;5061438;28;20543;-43
2021/08/09 05:11:45;;;;;;;6.63;3.80;;;23.90;95.40;;;;;;5046137;28;20032;-46
2021/08/09 05:14:11;;;;;;;6.63;3.83;;;24.00;95.30;;;;;;5045418;28;20043;-44
2021/08/09 05:16:39;;;;;;;8.73;3.55;;;24.10;95.00;;;;;;5044814;28;20134;-48
2021/08/09 05:19:05;;;;;;;7.20;3.80;;;24.30;94.80;;;;;;5064316;28;20086;-48
2021/08/09 05:21:32;;;;;;;7.68;3.70;;;24.30;94.50;;;;;;5034252;28;20037;-45
2021/08/09 05:23:59;;;;;;;11.35;4.28;;;24.10;94.60;;;;;;5058440;28;20056;-44
2021/08/09 05:26:25;;;;;;;8.80;3.60;;;24.30;94.70;;;;;;5063060;28;20043;-47
2021/08/09 05:28:51;;;;;;;6.00;3.90;;;24.30;94.80;;;;;;5044506;28;20415;-44
2021/08/09 05:31:16;;;;;;;9.25;4.38;;;24.30;94.60;;;;;;5036673;28;20425;-45
2021/08/09 05:33:43;;;;;;;11.85;3.70;;;24.40;94.40;;;;;;5004096;28;20548;-46
2021/08/09 05:36:09;;;;;;;11.20;5.43;;;24.50;94.40;;;;;;5049042;28;20040;-45
2021/08/09 05:38:35;;;;;;;6.85;4.05;;;24.50;94.30;;;;;;5076495;28;20081;-45
2021/08/09 05:41:05;;;;;;;11.90;3.97;;;24.50;94.30;;;;;;5096991;28;20048;-48
2021/08/09 05:43:31;;;;;;;5.70;3.60;;;24.40;94.20;;;;;;5111034;28;20414;-47
2021/08/09 05:45:57;;;;;;;7.28;4.03;;;24.50;94.00;;;;;;5114216;28;20054;-46
2021/08/09 05:48:23;;;;;;;7.93;3.35;;;24.40;94.10;;;;;;5111522;28;20032;-41
2021/08/09 05:50:49;;;;;;;5.13;3.25;;;24.50;94.20;;;;;;5115401;28;20127;-43
2021/08/09 05:53:14;;;;;;;9.10;4.78;;;24.50;94.10;;;;;;5115435;28;20024;-46
2021/08/09 05:55:40;;;;;;;6.18;3.50;;;24.50;94.30;;;;;;5115740;28;20111;-45
2021/08/09 05:58:06;;;;;;;9.30;5.00;;;24.60;94.20;;;;;;5079669;28;20141;-45
2021/08/09 06:00:32;;;;;;;8.82;3.45;;;24.60;93.90;;;;;;5114844;28;20042;-49
2021/08/09 06:02:57;;;;;;;7.65;3.63;;;24.80;93.70;;;;;;5114979;28;20032;-45
2021/08/09 06:05:23;;;;;;;7.78;3.40;;;24.90;93.40;;;;;;5114384;28;20027;-45
2021/08/09 06:07:49;;;;;;;6.30;3.92;;;25.00;93.40;;;;;;5115373;28;20467;-44
2021/08/09 06:10:15;;;;;;;5.40;3.10;;;25.10;93.10;;;;;;5115039;28;20029;-47
2021/08/09 06:12:41;;;;;;;7.05;3.80;;;;;;;;;;5113159;28;20471;-46
2021/08/09 06:15:08;;;;;;;6.22;3.42;;;;;;;;;;5062743;28;20044;-44
2021/08/09 06:17:35;;;;;;;7.63;3.70;;;;;;;;;;5114690;28;20024;-47
2021/08/09 06:20:02;;;;;;;5.53;3.20;;;;;;;;;;5062633;28;20046;-45
2021/08/09 06:22:28;;;;;;;5.63;3.50;;;;;;;;;;5114742;28;20051;-45
2021/08/09 06:24:54;;;;;;;4.25;3.30;;;;;;;;;;5114716;28;20031;-43
2021/08/09 06:27:20;;;;;;;5.35;3.53;;;;;;;;;;5062886;28;20067;-46
2021/08/09 06:29:46;;;;;;;6.35;3.58;;;;;;;;;;5114685;28;20114;-45
2021/08/09 06:32:12;;;;;;;7.03;3.60;;;;;;;;;;5096022;28;20499;-43
2021/08/09 06:34:38;;;;;;;7.45;3.90;;;;;;;;;;5114430;28;20027;-45
2021/08/09 06:37:05;;;;;;;7.15;3.55;;;;;;;;;;5114557;28;20035;-47
2021/08/09 06:39:31;;;;;;;6.53;3.95;;;;;;;;;;5114357;28;20027;-43
2021/08/09 06:42:02;;;;;;;7.30;4.45;;;;;;;;;;5114067;28;20404;-49
2021/08/09 06:44:28;;;;;;;7.63;3.77;;;;;;;;;;5106299;28;20434;-47
2021/08/09 06:46:55;;;;;;;4.95;3.38;;;;;;;;;;5042366;28;20292;-44
2021/08/09 06:49:23;;;;;;;5.85;3.80;;;;;;;;;;5058883;28;20111;-49
2021/08/09 06:51:49;;;;;;;5.63;3.90;;;;;;;;;;5059174;28;20039;-44
2021/08/09 06:54:15;;;;;;;8.80;4.20;;;;;;;;;;5093868;28;20028;-46
2021/08/09 06:56:41;;;;;;;6.95;3.33;;;;;;;;;;5095298;28;20028;-47
2021/08/09 06:59:07;;;;;;;7.35;3.97;;;25.90;91.50;;;;;;5098538;28;20126;-48
2021/08/09 07:01:32;;;;;;;7.75;3.42;;;26.10;91.60;;;;;;5093730;28;20137;-47
2021/08/09 07:03:59;;;;;;;5.88;3.65;;;26.20;91.20;;;;;;5085707;28;20088;-45
2021/08/09 07:06:25;;;;;;;8.35;3.65;;;26.10;91.10;;;;;;5042895;28;20531;-46
2021/08/09 07:08:52;;;;;;;6.55;4.00;;;26.10;91.00;;;;;;5072748;28;20047;-46
2021/08/09 07:11:18;;;;;;;7.40;3.58;;;26.20;90.90;;;;;;5085988;28;20043;-45
2021/08/09 07:13:45;;;;;;;7.72;3.42;;;26.30;90.70;;;;;;5109208;28;20086;-45
2021/08/09 07:16:11;;;;;;;6.88;3.35;;;26.30;90.70;;;;;;5110894;28;20043;-45
2021/08/09 07:18:37;;;;;;;9.02;3.88;;;26.10;90.80;;;;;;5106785;28;20361;-45
2021/08/09 07:21:03;;;;;;;7.80;3.28;;;26.30;90.90;;;;;;5108443;28;20036;-45
2021/08/09 07:23:29;;;;;;;7.32;4.45;;;26.40;90.60;;;;;;5104654;28;20024;-46
2021/08/09 07:25:55;;;;;;;6.93;4.22;;;26.50;90.30;;;;;;5108502;28;20024;-46
2021/08/09 07:28:21;;;;;;;7.47;3.75;;;26.50;90.30;;;;;;5067472;28;20487;-48
2021/08/09 07:30:47;;;;;;;8.25;3.97;;;26.40;90.40;;;;;;5100758;28;20523;-45
2021/08/09 07:33:13;;;;;;;7.97;3.70;;;26.60;90.20;;;;;;5101813;28;20115;-48
2021/08/09 07:35:39;;;;;;;7.50;3.75;;;26.70;90.20;;;;;;5100701;28;20043;-46
2021/08/09 07:38:05;;;;;;;10.15;4.07;;;26.90;90.10;;;;;;5106949;28;20028;-47
2021/08/09 07:40:31;;;;;;;4.85;3.67;;;27.00;90.50;;;;;;5097127;28;20031;-47
2021/08/09 07:42:57;;;;;;;9.07;4.55;;;;;;;;;;5104190;28;20048;-48
2021/08/09 07:45:23;;;;;;;6.32;3.38;;;27.30;87.50;;;;;;5113298;28;20127;-47
2021/08/09 07:47:52;;;;;;;6.05;3.22;;;27.30;88.10;;;;;;5113344;28;20035;-46
2021/08/09 07:50:22;;;;;;;7.57;3.50;;;27.40;86.80;;;;;;5113484;28;20367;-46
2021/08/09 07:52:49;;;;;;;5.47;3.72;;;27.60;87.40;;;;;;5113057;28;20433;-45
2021/08/09 07:55:15;;;;;;;5.85;3.20;;;27.70;86.60;;;;;;5093979;28;20040;-48
2021/08/09 07:57:42;;;;;;;7.50;4.40;;;27.70;87.00;;;;;;5113097;28;20062;-48
2021/08/09 08:00:09;;;;;;;5.63;3.45;;;27.80;86.60;;;;;;5112859;28;20031;-47
2021/08/09 08:02:35;;;;;;;5.22;3.47;;;28.00;85.00;;;;;;5060740;28;20440;-47
2021/08/09 08:05:01;;;;;;;7.25;3.80;;;27.90;84.70;;;;;;5112867;28;20465;-47
2021/08/09 08:07:27;;;;;;;11.27;4.00;;;28.00;84.70;;;;;;5113028;28;20464;-45
2021/08/09 08:09:53;;;;;;;4.70;3.38;;;28.10;85.30;;;;;;5077278;28;20043;-44
2021/08/09 08:12:19;;;;;;;5.75;3.53;;;28.40;83.20;;;;;;5114863;28;20020;-46
2021/08/09 08:14:44;;;;;;;4.93;3.78;;;28.60;83.40;;;;;;5115019;28;20054;-42
2021/08/09 08:17:10;;;;;;;7.35;3.60;;;28.90;82.30;;;;;;5117194;28;20490;-44
2021/08/09 08:19:36;;;;;;;4.90;3.53;;;28.80;81.70;;;;;;5117130;28;20474;-44
2021/08/09 08:22:02;;;;;;;7.03;3.97;;;28.80;81.30;;;;;;5116752;28;20067;-45
2021/08/09 08:24:28;;;;;;;5.55;3.65;;;28.90;80.30;;;;;;5064347;28;20050;-46
2021/08/09 08:26:55;;;;;;;5.10;3.40;;;29.00;80.40;;;;;;5116936;28;20031;-47
2021/08/09 08:29:21;;;;;;;5.60;3.70;;;28.70;81.20;;;;;;5116609;27;20116;-47
2021/08/09 08:31:47;;;;;;;7.85;3.75;;;28.90;81.40;;;;;;5064140;28;20067;-47
2021/08/09 08:34:12;;;;;;;5.90;3.95;;;29.20;81.10;;;;;;5116968;28;20461;-48
2021/08/09 08:36:39;;;;;;;5.18;3.60;;;29.40;90.50;;;;;;5116707;28;20118;-46
2021/08/09 08:39:06;;;;;;;6.10;3.55;;;29.60;89.90;;;;;;5117007;28;20061;-45
2021/08/09 08:41:33;;;;;;;6.75;3.80;;;;;;;;;;5116783;28;20432;-46
2021/08/09 08:43:58;;;;;;;4.97;3.65;;;29.70;81.80;;;;;;5136184;27;20054;-44
2021/08/09 08:46:25;;;;;;;5.40;3.38;;;29.90;83.90;;;;;;5137182;27;20362;-46
2021/08/09 08:48:54;;;;;;;5.78;3.55;;;30.10;86.10;;;;;;5137360;27;20432;-47
2021/08/09 08:51:23;;;;;;;4.85;3.55;;;30.20;76.50;;;;;;5134200;27;20035;-48
2021/08/09 08:53:49;;;;;;;4.68;3.40;;;30.30;77.00;;;;;;5137320;27;20035;-45
2021/08/09 08:56:16;;;;;;;6.38;3.58;;;;;;;;;;5136986;27;20107;-45
2021/08/09 08:58:41;;;;;;;5.95;3.15;;;30.80;87.80;;;;;;5136729;27;20118;-46
2021/08/09 09:01:07;;;;;;;5.30;3.75;;;30.90;75.80;;;;;;5137144;27;20118;-46
2021/08/09 09:03:41;;;;;;;8.95;3.55;;;31.00;75.20;;;;;;5136702;27;20031;-46
2021/08/09 09:06:09;;;;;;;7.13;3.60;;;31.20;75.70;;;;;;5136764;27;20111;-47
2021/08/09 09:08:40;;;;;;;9.18;3.55;;;31.10;75.10;;;;;;5136834;27;20027;-46
2021/08/09 09:11:11;;;;;;;7.78;3.75;;;31.30;74.30;;;;;;5100466;27;20501;-46
2021/08/09 09:13:52;;;;;;;6.78;3.60;;;31.50;74.10;;;;;;5136737;27;20030;-47
2021/08/09 09:16:18;;;;;;;6.35;3.55;;;31.80;72.60;;;;;;5136621;27;20051;-47
2021/08/09 09:18:47;;;;;;;6.10;3.25;;;32.30;80.10;;;;;;5136048;27;20035;-47
2021/08/09 09:21:27;;;;;;;5.57;3.53;;;32.20;72.70;;;;;;5099996;27;20044;-46
2021/08/09 09:23:56;;;;;;;11.00;4.03;;;32.40;71.30;;;;;;5021673;28;20051;-45
2021/08/09 09:26:26;;;;;;;11.50;3.72;;;32.40;70.70;;;;;;5072764;28;20040;-45
2021/08/09 09:28:52;;;;;;;8.35;3.70;;;32.40;71.20;;;;;;5038974;28;20107;-46
2021/08/09 09:31:29;;;;;;;7.25;3.55;;;32.40;70.60;;;;;;5072396;28;20035;-45
2021/08/09 09:33:56;;;;;;;9.25;3.78;;;;;;;;;;5072207;28;20499;-47
2021/08/09 09:36:22;;;;;;;5.80;3.53;;;33.20;70.50;;;;;;5069917;28;20557;-44
2021/08/09 09:38:52;;;;;;;6.28;3.63;;;33.00;70.40;;;;;;5039236;28;20048;-48
2021/08/09 09:41:20;;;;;;;9.73;3.80;;;33.10;69.40;;;;;;5072578;28;20040;-47
2021/08/09 09:43:46;;;;;;;5.78;3.35;;;33.00;69.20;;;;;;5072315;28;20052;-48
2021/08/09 09:46:28;;;;;;;7.70;3.83;;;;;;;;;;5038994;28;20045;-46
2021/08/09 09:49:02;;;;;;;4.50;3.80;;;;;;;;;;5072724;28;20152;-47
2021/08/09 09:51:28;;;;;;;5.88;3.65;;;34.00;67.30;;;;;;5072349;28;20032;-47
2021/08/09 09:53:54;;;;;;;7.20;3.53;;;34.10;66.20;;;;;;5041551;28;20040;-46
2021/08/09 09:56:20;;;;;;;6.32;4.07;;;34.10;66.50;;;;;;5085914;28;20108;-47
2021/08/09 09:58:47;;;;;;;6.82;3.90;;;34.40;67.40;;;;;;5104553;28;20032;-45
2021/08/09 10:01:13;;;;;;;7.00;3.75;;;34.30;68.10;;;;;;5109593;28;20063;-47
2021/08/09 10:03:41;;;;;;;7.47;4.30;;;34.40;68.00;;;;;;5078606;28;20079;-48
2021/08/09 10:06:09;;;;;;;8.77;3.70;;;34.70;65.50;;;;;;5114902;28;20394;-48
2021/08/09 10:08:41;;;;;;;8.20;3.85;;;34.80;66.50;;;;;;5109984;28;20031;-47
2021/08/09 10:11:07;;;;;;;6.80;3.80;;;34.80;66.20;;;;;;5105337;28;20024;-46
2021/08/09 10:13:35;;;;;;;5.72;4.03;;;34.60;67.10;;;;;;5103266;28;20047;-47
2021/08/09 10:16:07;;;;;;;7.60;4.05;;;34.80;66.50;;;;;;5107057;28;20040;-45
2021/08/09 10:18:37;;;;;;;10.00;3.97;;;35.10;65.80;;;;;;5114529;28;20371;-47
2021/08/09 10:21:05;;;;;;;6.57;3.85;;;34.80;65.90;;;;;;5078463;28;20134;-46
2021/08/09 10:23:44;;;;;;;5.05;3.63;;;34.70;65.10;;;;;;5091858;28;20175;-45
2021/08/09 10:26:30;;;;;;;7.93;4.10;;;34.40;64.80;;;;;;5091479;28;20169;-47
2021/08/09 10:28:55;;;;;;;7.88;4.65;;;34.50;66.20;;;;;;5077356;28;20042;-48
2021/08/09 10:31:24;;;;;;;8.65;4.13;;;34.40;65.40;;;;;;5092159;28;20135;-47
2021/08/09 10:33:52;;;;;;;7.30;4.38;;;34.60;65.80;;;;;;5092046;28;20084;-47
2021/08/09 10:36:21;;;;;;;7.78;3.80;;;35.10;63.90;;;;;;5091602;28;20040;-46
2021/08/09 10:38:49;;;;;;;7.22;4.35;;;35.30;64.20;;;;;;5091685;28;20047;-48
2021/08/09 10:41:15;;;;;;;7.57;4.10;;;35.70;61.60;;;;;;5091019;28;20066;-44
2021/08/09 10:44:04;;;;;;;6.57;4.25;;;36.00;62.80;;;;;;5090746;28;20094;-47
2021/08/09 10:46:39;;;;;;;6.38;4.25;;;;;;;;;;5091759;28;20627;-45
2021/08/09 10:49:40;;;;;;;9.25;4.38;;;36.20;76.30;;;;;;5091794;28;20445;-47
2021/08/09 10:52:08;;;;;;;5.07;3.80;;;36.20;65.90;;;;;;5091906;28;20040;-45
2021/08/09 10:54:36;;;;;;;7.03;3.70;;;36.00;65.10;;;;;;5079420;27;20036;-43
2021/08/09 10:57:05;;;;;;;7.22;5.40;;;35.60;65.30;;;;;;5098215;27;20039;-44
2021/08/09 10:59:45;;;;;;;6.15;4.18;;;35.50;63.40;;;;;;5115425;27;20039;-46
2021/08/09 11:02:14;;;;;;;6.65;3.70;;;35.20;63.30;;;;;;5134730;27;20054;-46
2021/08/09 11:04:40;;;;;;;4.70;3.40;;;35.30;63.40;;;;;;5098058;27;20043;-47
2021/08/09 11:07:17;;;;;;;8.73;4.22;;;36.00;64.70;;;;;;5134729;27;20384;-46
2021/08/09 11:09:44;;;;;;;5.55;3.78;;;;;;;;;;5134437;27;20146;-45
2021/08/09 11:12:21;;;;;;;6.15;3.60;;;36.00;64.00;;;;;;5134270;27;20027;-48
2021/08/09 11:15:11;;;;;;;9.05;4.20;;;36.30;72.00;;;;;;5134509;27;20027;-46
2021/08/09 11:17:37;;;;;;;6.45;3.92;;;36.70;85.90;;;;;;5134353;27;20528;-47
2021/08/09 11:20:14;;;;;;;6.10;3.97;;;;;;;;;;5098078;28;20050;-49
2021/08/09 11:22:41;;;;;;;11.85;3.47;;;;;;;;;;5098549;28;20387;-46
2021/08/09 11:25:24;;;;;;;8.45;3.95;;;;;;;;;;5134518;28;20023;-46
2021/08/09 11:28:21;;;;;;;4.88;3.80;;;;;;;;;;5097813;28;20447;-47
2021/08/09 11:30:56;;;;;;;13.73;3.78;;;36.10;62.00;;;;;;5031097;28;20400;-46
2021/08/09 11:33:24;;;;;;;7.28;4.18;;;36.60;62.50;;;;;;5031208;28;20038;-44
2021/08/09 11:35:51;;;;;;;8.73;4.07;;;;;;;;;;5028319;28;20063;-47
2021/08/09 11:38:17;;;;;;;9.27;3.60;;;36.40;80.00;;;;;;4981624;28;20044;-47
2021/08/09 11:41:04;;;;;;;9.02;3.90;;;36.70;64.30;;;;;;5014075;28;20448;-45
2021/08/09 11:43:32;;;;;;;6.90;3.67;;;;;;;;;;5015608;28;20465;-45
2021/08/09 11:46:06;;;;;;;4.68;3.47;;;36.80;61.50;;;;;;5011245;28;20046;-47
2021/08/09 11:48:34;;;;;;;5.57;3.45;;;37.00;67.40;;;;;;4997946;28;20045;-43
2021/08/09 11:51:05;;;;;;;6.88;3.78;;;37.20;67.50;;;;;;4982829;28;20042;-43
2021/08/09 11:53:31;;;;;;;;;;;;;;;;;;5015574;28;20065;-46
2021/08/09 11:56:07;;;;;;;5.63;3.35;;;;;;;;;;5014713;28;20010;-48
2021/08/09 11:58:33;;;;;;;7.32;3.25;;;;;;;;;;5015214;28;20096;-43
2021/08/09 12:00:59;;;;;;;8.70;4.07;;;;;;;;;;5014846;28;20041;-46
2021/08/09 12:03:27;;;;;;;6.40;3.60;;;;;;;;;;5014569;28;20040;-47
2021/08/09 12:05:55;;;;;;;9.60;4.00;;;37.70;94.20;;;;;;5014859;28;20528;-46
2021/08/09 12:08:23;;;;;;;6.45;3.53;;;37.20;77.60;;;;;;5117805;28;20634;-46
2021/08/09 12:10:49;;;;;;;8.40;3.40;;;37.80;77.10;;;;;;5114372;28;20379;-47
2021/08/09 12:13:22;;;;;;;5.15;3.45;;;37.10;74.80;;;;;;5064794;28;20380;-44
2021/08/09 12:16:13;;;;;;;7.03;3.80;;;37.10;75.10;;;;;;5117028;28;20035;-48
2021/08/09 12:18:53;;;;;;;5.50;3.45;;;37.10;75.30;;;;;;5080781;28;20067;-46
2021/08/09 12:21:20;;;;;;;7.80;3.70;;;37.20;74.60;;;;;;5117218;28;20344;-47
2021/08/09 12:23:55;;;;;;;4.90;3.55;;;37.40;75.30;;;;;;5080814;28;20043;-47
2021/08/09 12:26:26;;;;;;;7.70;4.53;;;37.40;75.70;;;;;;5097874;28;20042;-47
2021/08/09 12:28:53;;;;;;;5.65;3.38;;;37.50;74.40;;;;;;5117121;28;20035;-44
2021/08/09 12:31:49;;;;;;;11.77;3.63;;;37.40;73.50;;;;;;5112443;28;20028;-46
2021/08/09 12:34:22;;;;;;;6.13;3.78;;;37.20;72.80;;;;;;5068931;28;20044;-45
2021/08/09 12:36:50;;;;;;;5.75;3.90;;;37.20;72.90;;;;;;5072418;28;20043;-44
2021/08/09 12:39:32;;;;;;;8.57;4.05;;;37.50;72.70;;;;;;5073728;28;20049;-46
2021/08/09 12:42:16;;;;;;;8.32;3.65;;;37.40;71.90;;;;;;5070391;28;20104;-46
2021/08/09 12:44:42;;;;;;;6.00;3.50;;;37.20;72.20;;;;;;5036913;28;20116;-45
2021/08/09 12:47:08;;;;;;;7.88;3.70;;;37.20;71.80;;;;;;5053974;28;20032;-48
2021/08/09 12:49:34;;;;;;;8.50;3.75;;;37.20;73.10;;;;;;5053428;28;20630;-47
2021/08/09 12:52:00;;;;;;;5.20;3.45;;;37.40;71.90;;;;;;5055104;28;20041;-48
2021/08/09 12:54:25;;;;;;;6.63;3.78;;;37.70;72.40;;;;;;5073822;28;20107;-44
2021/08/09 12:56:51;;;;;;;8.32;5.03;;;37.80;82.00;;;;;;5039300;28;20125;-46
2021/08/09 12:59:17;;;;;;;6.80;3.97;;;37.60;82.30;;;;;;5052785;28;20167;-45
2021/08/09 13:01:43;;;;;;;5.80;3.92;;;;;;;;;;5083388;28;20037;-47
2021/08/09 13:04:09;;;;;;;9.73;4.60;;;38.10;60.50;;;;;;5071578;28;20651;-46
2021/08/09 13:06:35;;;;;;;8.55;3.90;;;38.00;60.70;;;;;;5067723;28;20028;-47
2021/08/09 13:09:01;;;;;;;8.10;3.60;;;;;;;;;;5069493;28;20033;-46
2021/08/09 13:11:27;;;;;;;10.77;3.75;;;;;;;;;;5099242;28;20174;-45
2021/08/09 13:13:53;;;;;;;5.95;3.70;;;;;;;;;;5103433;28;20608;-46
2021/08/09 13:16:20;;;;;;;6.22;3.75;;;;;;;;;;5113189;28;20051;-48
2021/08/09 13:18:47;;;;;;;6.32;3.72;;;;;;;;;;5076535;28;20044;-48